sensor_id;sensor_type;location;lat;lon;timestamp;temperature;humidity
17331;DHT22;8783;52.448;4.638;2023-07-02T00:00:09;21.90;99.90
17331;DHT22;8783;52.448;4.638;2023-07-02T00:02:36;21.90;99.90
17331;DHT22;8783;52.448;4.638;2023-07-02T00:05:02;21.90;99.90
17331;DHT22;8783;52.448;4.638;2023-07-02T00:07:28;21.90;99.90
17331;DHT22;8783;52.448;4.638;2023-07-02T00:09:54;21.90;99.90
17331;DHT22;8783;52.448;4.638;2023-07-02T00:12:19;21.90;99.90
17331;DHT22;8783;52.448;4.638;2023-07-02T00:14:45;21.90;99.90
17331;DHT22;8783;52.448;4.638;2023-07-02T00:17:11;21.90;99.90
17331;DHT22;8783;52.448;4.638;2023-07-02T00:19:40;21.90;99.90
17331;DHT22;8783;52.448;4.638;2023-07-02T00:22:10;21.90;99.90
17331;DHT22;8783;52.448;4.638;2023-07-02T00:24:36;21.90;99.90
17331;DHT22;8783;52.448;4.638;2023-07-02T00:27:02;21.90;99.90
17331;DHT22;8783;52.448;4.638;2023-07-02T00:29:28;21.90;99.90
17331;DHT22;8783;52.448;4.638;2023-07-02T00:31:53;21.90;99.90
17331;DHT22;8783;52.448;4.638;2023-07-02T00:34:19;21.90;99.90
17331;DHT22;8783;52.448;4.638;2023-07-02T00:36:45;21.90;99.90
17331;DHT22;8783;52.448;4.638;2023-07-02T00:39:11;21.80;99.90
17331;DHT22;8783;52.448;4.638;2023-07-02T00:41:41;21.90;99.90
17331;DHT22;8783;52.448;4.638;2023-07-02T00:44:08;21.90;99.90
17331;DHT22;8783;52.448;4.638;2023-07-02T00:46:36;21.90;99.90
17331;DHT22;8783;52.448;4.638;2023-07-02T00:49:04;21.90;99.90
17331;DHT22;8783;52.448;4.638;2023-07-02T00:51:30;21.90;99.90
17331;DHT22;8783;52.448;4.638;2023-07-02T00:53:57;21.90;99.90
17331;DHT22;8783;52.448;4.638;2023-07-02T00:56:25;21.90;99.90
17331;DHT22;8783;52.448;4.638;2023-07-02T00:58:53;21.80;99.90
17331;DHT22;8783;52.448;4.638;2023-07-02T01:01:21;21.90;99.90
17331;DHT22;8783;52.448;4.638;2023-07-02T01:03:57;21.90;99.90
17331;DHT22;8783;52.448;4.638;2023-07-02T01:06:29;21.90;99.90
17331;DHT22;8783;52.448;4.638;2023-07-02T01:08:57;21.80;99.90
17331;DHT22;8783;52.448;4.638;2023-07-02T01:11:43;21.80;99.90
17331;DHT22;8783;52.448;4.638;2023-07-02T01:14:14;21.80;99.90
17331;DHT22;8783;52.448;4.638;2023-07-02T01:16:42;21.80;99.90
17331;DHT22;8783;52.448;4.638;2023-07-02T01:19:15;21.80;99.90
17331;DHT22;8783;52.448;4.638;2023-07-02T01:21:45;21.80;99.90
17331;DHT22;8783;52.448;4.638;2023-07-02T01:24:11;21.80;99.90
17331;DHT22;8783;52.448;4.638;2023-07-02T01:26:38;21.80;99.90
17331;DHT22;8783;52.448;4.638;2023-07-02T01:29:20;21.80;99.90
17331;DHT22;8783;52.448;4.638;2023-07-02T01:31:46;21.80;99.90
17331;DHT22;8783;52.448;4.638;2023-07-02T01:34:13;21.80;99.90
17331;DHT22;8783;52.448;4.638;2023-07-02T01:36:40;21.80;99.90
17331;DHT22;8783;52.448;4.638;2023-07-02T01:39:06;21.80;99.90
17331;DHT22;8783;52.448;4.638;2023-07-02T01:41:41;21.80;99.90
17331;DHT22;8783;52.448;4.638;2023-07-02T01:44:07;21.80;99.90
17331;DHT22;8783;52.448;4.638;2023-07-02T01:46:33;21.80;99.90
17331;DHT22;8783;52.448;4.638;2023-07-02T01:48:58;21.70;99.90
17331;DHT22;8783;52.448;4.638;2023-07-02T01:51:24;21.80;99.90
17331;DHT22;8783;52.448;4.638;2023-07-02T01:53:49;21.80;99.90
17331;DHT22;8783;52.448;4.638;2023-07-02T01:56:15;21.70;99.90
17331;DHT22;8783;52.448;4.638;2023-07-02T01:58:40;21.80;99.90
17331;DHT22;8783;52.448;4.638;2023-07-02T02:01:06;21.80;99.90
17331;DHT22;8783;52.448;4.638;2023-07-02T02:03:32;21.70;99.90
17331;DHT22;8783;52.448;4.638;2023-07-02T02:05:57;21.80;99.90
17331;DHT22;8783;52.448;4.638;2023-07-02T02:08:23;21.70;99.90
17331;DHT22;8783;52.448;4.638;2023-07-02T02:10:48;21.80;99.90
17331;DHT22;8783;52.448;4.638;2023-07-02T02:13:14;21.70;99.90
17331;DHT22;8783;52.448;4.638;2023-07-02T02:15:40;21.70;99.90
17331;DHT22;8783;52.448;4.638;2023-07-02T02:18:06;21.70;99.90
17331;DHT22;8783;52.448;4.638;2023-07-02T02:20:32;21.70;99.90
17331;DHT22;8783;52.448;4.638;2023-07-02T02:22:57;21.70;99.90
17331;DHT22;8783;52.448;4.638;2023-07-02T02:25:23;21.70;99.90
17331;DHT22;8783;52.448;4.638;2023-07-02T02:27:49;21.70;99.90
17331;DHT22;8783;52.448;4.638;2023-07-02T02:30:14;21.70;99.90
17331;DHT22;8783;52.448;4.638;2023-07-02T02:32:40;21.70;99.90
17331;DHT22;8783;52.448;4.638;2023-07-02T02:35:06;21.70;99.90
17331;DHT22;8783;52.448;4.638;2023-07-02T02:37:34;21.70;99.90
17331;DHT22;8783;52.448;4.638;2023-07-02T02:40:00;21.70;99.90
17331;DHT22;8783;52.448;4.638;2023-07-02T02:42:26;21.70;99.90
17331;DHT22;8783;52.448;4.638;2023-07-02T02:44:52;21.70;99.90
17331;DHT22;8783;52.448;4.638;2023-07-02T02:47:17;21.70;99.90
17331;DHT22;8783;52.448;4.638;2023-07-02T02:49:43;21.70;99.90
17331;DHT22;8783;52.448;4.638;2023-07-02T02:52:09;21.70;99.90
17331;DHT22;8783;52.448;4.638;2023-07-02T02:54:35;21.70;99.90
17331;DHT22;8783;52.448;4.638;2023-07-02T02:57:00;21.70;99.90
17331;DHT22;8783;52.448;4.638;2023-07-02T02:59:26;21.70;99.90
17331;DHT22;8783;52.448;4.638;2023-07-02T03:01:51;21.70;99.90
17331;DHT22;8783;52.448;4.638;2023-07-02T03:04:17;21.70;99.90
17331;DHT22;8783;52.448;4.638;2023-07-02T03:06:43;21.60;99.90
17331;DHT22;8783;52.448;4.638;2023-07-02T03:09:08;21.70;99.90
17331;DHT22;8783;52.448;4.638;2023-07-02T03:11:34;21.60;99.90
17331;DHT22;8783;52.448;4.638;2023-07-02T03:13:59;21.60;99.90
17331;DHT22;8783;52.448;4.638;2023-07-02T03:16:25;21.60;99.90
17331;DHT22;8783;52.448;4.638;2023-07-02T03:18:51;21.60;99.90
17331;DHT22;8783;52.448;4.638;2023-07-02T03:21:16;21.60;99.90
17331;DHT22;8783;52.448;4.638;2023-07-02T03:23:42;21.60;99.90
17331;DHT22;8783;52.448;4.638;2023-07-02T03:26:09;21.60;99.90
17331;DHT22;8783;52.448;4.638;2023-07-02T03:28:35;21.60;99.90
17331;DHT22;8783;52.448;4.638;2023-07-02T03:31:01;21.60;99.90
17331;DHT22;8783;52.448;4.638;2023-07-02T03:33:27;21.60;99.90
17331;DHT22;8783;52.448;4.638;2023-07-02T03:35:53;21.60;99.90
17331;DHT22;8783;52.448;4.638;2023-07-02T03:38:18;21.60;99.90
17331;DHT22;8783;52.448;4.638;2023-07-02T03:40:44;21.60;99.90
17331;DHT22;8783;52.448;4.638;2023-07-02T03:43:10;21.60;99.90
17331;DHT22;8783;52.448;4.638;2023-07-02T03:45:36;21.60;99.90
17331;DHT22;8783;52.448;4.638;2023-07-02T03:48:01;21.60;99.90
17331;DHT22;8783;52.448;4.638;2023-07-02T03:50:27;21.60;99.90
17331;DHT22;8783;52.448;4.638;2023-07-02T03:52:52;21.50;99.90
17331;DHT22;8783;52.448;4.638;2023-07-02T03:55:19;21.60;99.90
17331;DHT22;8783;52.448;4.638;2023-07-02T03:57:45;21.60;99.90
17331;DHT22;8783;52.448;4.638;2023-07-02T04:00:11;21.50;99.90
17331;DHT22;8783;52.448;4.638;2023-07-02T04:02:36;21.60;99.90
17331;DHT22;8783;52.448;4.638;2023-07-02T04:05:02;21.60;99.90
17331;DHT22;8783;52.448;4.638;2023-07-02T04:07:28;21.60;99.90
17331;DHT22;8783;52.448;4.638;2023-07-02T04:09:54;21.60;99.90
17331;DHT22;8783;52.448;4.638;2023-07-02T04:12:19;21.60;99.90
17331;DHT22;8783;52.448;4.638;2023-07-02T04:14:45;21.60;99.90
17331;DHT22;8783;52.448;4.638;2023-07-02T04:17:10;21.60;99.90
17331;DHT22;8783;52.448;4.638;2023-07-02T04:19:36;21.60;99.90
17331;DHT22;8783;52.448;4.638;2023-07-02T04:22:02;21.60;99.90
17331;DHT22;8783;52.448;4.638;2023-07-02T04:24:28;21.60;99.90
17331;DHT22;8783;52.448;4.638;2023-07-02T04:26:53;21.60;99.90
17331;DHT22;8783;52.448;4.638;2023-07-02T04:29:19;21.60;99.90
17331;DHT22;8783;52.448;4.638;2023-07-02T04:31:45;21.60;99.90
17331;DHT22;8783;52.448;4.638;2023-07-02T04:34:11;21.60;99.90
17331;DHT22;8783;52.448;4.638;2023-07-02T04:36:36;21.60;99.90
17331;DHT22;8783;52.448;4.638;2023-07-02T04:39:02;21.60;99.90
17331;DHT22;8783;52.448;4.638;2023-07-02T04:41:28;21.50;99.90
17331;DHT22;8783;52.448;4.638;2023-07-02T04:43:55;21.60;99.90
17331;DHT22;8783;52.448;4.638;2023-07-02T04:46:20;21.60;99.90
17331;DHT22;8783;52.448;4.638;2023-07-02T04:48:46;21.50;99.90
17331;DHT22;8783;52.448;4.638;2023-07-02T04:51:13;21.60;99.90
17331;DHT22;8783;52.448;4.638;2023-07-02T04:53:38;21.60;99.90
17331;DHT22;8783;52.448;4.638;2023-07-02T04:56:04;21.50;99.90
17331;DHT22;8783;52.448;4.638;2023-07-02T04:58:30;21.60;99.90
17331;DHT22;8783;52.448;4.638;2023-07-02T05:00:55;21.60;99.90
17331;DHT22;8783;52.448;4.638;2023-07-02T05:03:21;21.50;99.90
17331;DHT22;8783;52.448;4.638;2023-07-02T05:05:47;21.50;99.90
17331;DHT22;8783;52.448;4.638;2023-07-02T05:08:12;21.50;99.90
17331;DHT22;8783;52.448;4.638;2023-07-02T05:10:38;21.50;99.90
17331;DHT22;8783;52.448;4.638;2023-07-02T05:13:04;21.50;99.90
17331;DHT22;8783;52.448;4.638;2023-07-02T05:15:29;21.50;99.90
17331;DHT22;8783;52.448;4.638;2023-07-02T05:17:55;21.50;99.90
17331;DHT22;8783;52.448;4.638;2023-07-02T05:20:20;21.50;99.90
17331;DHT22;8783;52.448;4.638;2023-07-02T05:22:46;21.50;99.90
17331;DHT22;8783;52.448;4.638;2023-07-02T05:25:12;21.50;99.90
17331;DHT22;8783;52.448;4.638;2023-07-02T05:27:37;21.50;99.90
17331;DHT22;8783;52.448;4.638;2023-07-02T05:30:03;21.40;99.90
17331;DHT22;8783;52.448;4.638;2023-07-02T05:32:29;21.40;99.90
17331;DHT22;8783;52.448;4.638;2023-07-02T05:34:57;21.40;99.90
17331;DHT22;8783;52.448;4.638;2023-07-02T05:37:23;21.40;99.90
17331;DHT22;8783;52.448;4.638;2023-07-02T05:39:48;21.40;99.90
17331;DHT22;8783;52.448;4.638;2023-07-02T05:42:14;21.40;99.90
17331;DHT22;8783;52.448;4.638;2023-07-02T05:44:40;21.30;99.90
17331;DHT22;8783;52.448;4.638;2023-07-02T05:47:05;21.40;99.90
17331;DHT22;8783;52.448;4.638;2023-07-02T05:49:32;21.30;99.90
17331;DHT22;8783;52.448;4.638;2023-07-02T05:51:58;21.30;99.90
17331;DHT22;8783;52.448;4.638;2023-07-02T05:54:23;21.40;99.90
17331;DHT22;8783;52.448;4.638;2023-07-02T05:56:49;21.30;99.90
17331;DHT22;8783;52.448;4.638;2023-07-02T05:59:15;21.40;99.90
17331;DHT22;8783;52.448;4.638;2023-07-02T06:01:43;21.30;99.90
17331;DHT22;8783;52.448;4.638;2023-07-02T06:04:09;21.30;99.90
17331;DHT22;8783;52.448;4.638;2023-07-02T06:06:34;21.30;99.90
17331;DHT22;8783;52.448;4.638;2023-07-02T06:09:00;21.30;99.90
17331;DHT22;8783;52.448;4.638;2023-07-02T06:11:26;21.30;99.90
17331;DHT22;8783;52.448;4.638;2023-07-02T06:13:51;21.40;99.90
17331;DHT22;8783;52.448;4.638;2023-07-02T06:16:17;21.40;99.90
17331;DHT22;8783;52.448;4.638;2023-07-02T06:18:43;21.40;99.90
17331;DHT22;8783;52.448;4.638;2023-07-02T06:21:08;21.30;99.90
17331;DHT22;8783;52.448;4.638;2023-07-02T06:23:43;21.40;99.90
17331;DHT22;8783;52.448;4.638;2023-07-02T06:26:09;21.40;99.90
17331;DHT22;8783;52.448;4.638;2023-07-02T06:28:35;21.40;99.90
17331;DHT22;8783;52.448;4.638;2023-07-02T06:31:01;21.40;99.90
17331;DHT22;8783;52.448;4.638;2023-07-02T06:33:27;21.40;99.90
17331;DHT22;8783;52.448;4.638;2023-07-02T06:35:52;21.40;99.90
17331;DHT22;8783;52.448;4.638;2023-07-02T06:38:18;21.40;99.90
17331;DHT22;8783;52.448;4.638;2023-07-02T06:40:44;21.50;99.90
17331;DHT22;8783;52.448;4.638;2023-07-02T06:43:09;21.50;99.90
17331;DHT22;8783;52.448;4.638;2023-07-02T06:45:35;21.50;99.90
17331;DHT22;8783;52.448;4.638;2023-07-02T06:48:01;21.50;99.90
17331;DHT22;8783;52.448;4.638;2023-07-02T06:50:27;21.50;99.90
17331;DHT22;8783;52.448;4.638;2023-07-02T06:52:52;21.50;99.90
17331;DHT22;8783;52.448;4.638;2023-07-02T06:55:18;21.50;99.90
17331;DHT22;8783;52.448;4.638;2023-07-02T06:57:44;21.60;99.90
17331;DHT22;8783;52.448;4.638;2023-07-02T07:00:12;21.60;99.90
17331;DHT22;8783;52.448;4.638;2023-07-02T07:02:37;21.50;99.90
17331;DHT22;8783;52.448;4.638;2023-07-02T07:05:03;21.50;99.90
17331;DHT22;8783;52.448;4.638;2023-07-02T07:07:30;21.50;99.90
17331;DHT22;8783;52.448;4.638;2023-07-02T07:09:55;21.50;99.90
17331;DHT22;8783;52.448;4.638;2023-07-02T07:12:21;21.50;99.90
17331;DHT22;8783;52.448;4.638;2023-07-02T07:14:47;21.60;99.90
17331;DHT22;8783;52.448;4.638;2023-07-02T07:17:12;21.60;99.90
17331;DHT22;8783;52.448;4.638;2023-07-02T07:19:38;21.60;99.90
17331;DHT22;8783;52.448;4.638;2023-07-02T07:22:03;21.70;99.90
17331;DHT22;8783;52.448;4.638;2023-07-02T07:24:32;21.60;99.90
17331;DHT22;8783;52.448;4.638;2023-07-02T07:26:58;21.70;99.90
17331;DHT22;8783;52.448;4.638;2023-07-02T07:29:23;21.70;99.90
17331;DHT22;8783;52.448;4.638;2023-07-02T07:31:50;21.70;99.90
17331;DHT22;8783;52.448;4.638;2023-07-02T07:34:15;21.70;99.90
17331;DHT22;8783;52.448;4.638;2023-07-02T07:36:41;21.70;99.90
17331;DHT22;8783;52.448;4.638;2023-07-02T07:39:06;21.70;99.90
17331;DHT22;8783;52.448;4.638;2023-07-02T07:41:32;21.70;99.90
17331;DHT22;8783;52.448;4.638;2023-07-02T07:43:58;21.70;99.90
17331;DHT22;8783;52.448;4.638;2023-07-02T07:46:23;21.70;99.90
17331;DHT22;8783;52.448;4.638;2023-07-02T07:48:49;21.70;99.90
17331;DHT22;8783;52.448;4.638;2023-07-02T07:51:15;21.80;99.90
17331;DHT22;8783;52.448;4.638;2023-07-02T07:53:40;21.80;99.90
17331;DHT22;8783;52.448;4.638;2023-07-02T07:56:06;21.80;99.90
17331;DHT22;8783;52.448;4.638;2023-07-02T07:58:31;21.80;99.90
17331;DHT22;8783;52.448;4.638;2023-07-02T08:00:57;21.80;99.90
17331;DHT22;8783;52.448;4.638;2023-07-02T08:03:23;21.80;99.90
17331;DHT22;8783;52.448;4.638;2023-07-02T08:05:49;21.80;99.90
17331;DHT22;8783;52.448;4.638;2023-07-02T08:08:14;21.80;99.90
17331;DHT22;8783;52.448;4.638;2023-07-02T08:10:40;21.80;99.90
17331;DHT22;8783;52.448;4.638;2023-07-02T08:13:07;21.80;99.90
17331;DHT22;8783;52.448;4.638;2023-07-02T08:15:33;21.90;99.90
17331;DHT22;8783;52.448;4.638;2023-07-02T08:17:59;21.90;99.90
17331;DHT22;8783;52.448;4.638;2023-07-02T08:20:25;21.90;99.90
17331;DHT22;8783;52.448;4.638;2023-07-02T08:22:51;21.90;99.90
17331;DHT22;8783;52.448;4.638;2023-07-02T08:25:17;21.90;99.90
17331;DHT22;8783;52.448;4.638;2023-07-02T08:27:43;21.90;99.90
17331;DHT22;8783;52.448;4.638;2023-07-02T08:30:09;21.90;99.90
17331;DHT22;8783;52.448;4.638;2023-07-02T08:32:35;22.00;99.90
17331;DHT22;8783;52.448;4.638;2023-07-02T08:35:01;22.00;99.90
17331;DHT22;8783;52.448;4.638;2023-07-02T08:37:27;22.00;99.90
17331;DHT22;8783;52.448;4.638;2023-07-02T08:39:53;21.90;99.90
17331;DHT22;8783;52.448;4.638;2023-07-02T08:42:18;21.90;99.90
17331;DHT22;8783;52.448;4.638;2023-07-02T08:44:47;21.90;99.90
17331;DHT22;8783;52.448;4.638;2023-07-02T08:47:14;21.90;99.90
17331;DHT22;8783;52.448;4.638;2023-07-02T08:49:40;21.90;99.90
17331;DHT22;8783;52.448;4.638;2023-07-02T08:52:07;21.90;99.90
17331;DHT22;8783;52.448;4.638;2023-07-02T08:54:33;21.90;99.90
17331;DHT22;8783;52.448;4.638;2023-07-02T08:56:58;21.90;99.90
17331;DHT22;8783;52.448;4.638;2023-07-02T08:59:26;21.90;99.90
17331;DHT22;8783;52.448;4.638;2023-07-02T09:01:53;21.90;99.90
17331;DHT22;8783;52.448;4.638;2023-07-02T09:04:20;21.90;99.90
17331;DHT22;8783;52.448;4.638;2023-07-02T09:07:08;21.90;99.90
17331;DHT22;8783;52.448;4.638;2023-07-02T09:09:48;21.90;99.90
17331;DHT22;8783;52.448;4.638;2023-07-02T09:12:28;21.90;99.90
17331;DHT22;8783;52.448;4.638;2023-07-02T09:14:59;21.90;99.90
17331;DHT22;8783;52.448;4.638;2023-07-02T09:17:33;21.90;99.90
17331;DHT22;8783;52.448;4.638;2023-07-02T09:20:00;21.90;99.90
17331;DHT22;8783;52.448;4.638;2023-07-02T09:22:26;21.90;99.80
17331;DHT22;8783;52.448;4.638;2023-07-02T09:24:53;21.80;99.80
17331;DHT22;8783;52.448;4.638;2023-07-02T09:27:38;21.80;99.80
17331;DHT22;8783;52.448;4.638;2023-07-02T09:30:14;21.80;99.90
17331;DHT22;8783;52.448;4.638;2023-07-02T09:32:44;21.80;99.80
17331;DHT22;8783;52.448;4.638;2023-07-02T09:35:10;21.80;99.90
17331;DHT22;8783;52.448;4.638;2023-07-02T09:37:36;21.80;99.90
17331;DHT22;8783;52.448;4.638;2023-07-02T09:40:02;21.80;99.90
17331;DHT22;8783;52.448;4.638;2023-07-02T09:42:32;21.80;99.90
17331;DHT22;8783;52.448;4.638;2023-07-02T09:44:59;21.70;99.90
17331;DHT22;8783;52.448;4.638;2023-07-02T09:47:26;21.80;99.70
17331;DHT22;8783;52.448;4.638;2023-07-02T09:49:55;21.70;99.70
17331;DHT22;8783;52.448;4.638;2023-07-02T09:52:21;21.70;99.60
17331;DHT22;8783;52.448;4.638;2023-07-02T09:54:47;21.70;99.60
17331;DHT22;8783;52.448;4.638;2023-07-02T09:57:13;21.70;99.60
17331;DHT22;8783;52.448;4.638;2023-07-02T09:59:40;21.60;99.80
17331;DHT22;8783;52.448;4.638;2023-07-02T10:02:06;21.60;99.90
17331;DHT22;8783;52.448;4.638;2023-07-02T10:04:46;21.60;99.90
17331;DHT22;8783;52.448;4.638;2023-07-02T10:07:25;21.60;99.80
17331;DHT22;8783;52.448;4.638;2023-07-02T10:09:51;21.70;99.90
17331;DHT22;8783;52.448;4.638;2023-07-02T10:12:20;21.60;99.90
17331;DHT22;8783;52.448;4.638;2023-07-02T10:14:48;21.70;99.90
17331;DHT22;8783;52.448;4.638;2023-07-02T10:17:29;21.60;99.90
17331;DHT22;8783;52.448;4.638;2023-07-02T10:19:57;21.60;99.90
17331;DHT22;8783;52.448;4.638;2023-07-02T10:22:24;21.60;99.90
17331;DHT22;8783;52.448;4.638;2023-07-02T10:24:59;21.60;99.90
17331;DHT22;8783;52.448;4.638;2023-07-02T10:27:39;21.60;99.90
17331;DHT22;8783;52.448;4.638;2023-07-02T10:30:07;21.60;99.90
17331;DHT22;8783;52.448;4.638;2023-07-02T10:32:34;21.60;99.90
17331;DHT22;8783;52.448;4.638;2023-07-02T10:35:01;21.60;99.90
17331;DHT22;8783;52.448;4.638;2023-07-02T10:37:35;21.60;99.90
17331;DHT22;8783;52.448;4.638;2023-07-02T10:40:04;21.60;99.90
17331;DHT22;8783;52.448;4.638;2023-07-02T10:42:30;21.60;99.90
17331;DHT22;8783;52.448;4.638;2023-07-02T10:44:58;21.60;99.90
17331;DHT22;8783;52.448;4.638;2023-07-02T10:47:23;21.60;99.90
17331;DHT22;8783;52.448;4.638;2023-07-02T10:49:50;21.60;99.90
17331;DHT22;8783;52.448;4.638;2023-07-02T10:52:15;21.60;99.90
17331;DHT22;8783;52.448;4.638;2023-07-02T10:54:46;21.60;99.90
17331;DHT22;8783;52.448;4.638;2023-07-02T10:57:18;21.60;99.90
17331;DHT22;8783;52.448;4.638;2023-07-02T10:59:47;21.60;99.90
17331;DHT22;8783;52.448;4.638;2023-07-02T11:02:17;21.50;99.90
17331;DHT22;8783;52.448;4.638;2023-07-02T11:04:42;21.50;99.90
17331;DHT22;8783;52.448;4.638;2023-07-02T11:07:10;21.50;99.90
17331;DHT22;8783;52.448;4.638;2023-07-02T11:09:36;21.50;99.90
17331;DHT22;8783;52.448;4.638;2023-07-02T11:12:02;21.50;99.90
17331;DHT22;8783;52.448;4.638;2023-07-02T11:14:35;21.50;99.90
17331;DHT22;8783;52.448;4.638;2023-07-02T11:17:06;21.50;99.90
17331;DHT22;8783;52.448;4.638;2023-07-02T11:19:35;21.50;99.90
17331;DHT22;8783;52.448;4.638;2023-07-02T11:22:02;21.50;99.90
17331;DHT22;8783;52.448;4.638;2023-07-02T11:24:37;21.60;99.90
17331;DHT22;8783;52.448;4.638;2023-07-02T11:27:06;21.60;99.90
17331;DHT22;8783;52.448;4.638;2023-07-02T11:29:33;21.60;99.90
17331;DHT22;8783;52.448;4.638;2023-07-02T11:32:09;21.60;99.90
17331;DHT22;8783;52.448;4.638;2023-07-02T11:34:36;21.50;99.90
17331;DHT22;8783;52.448;4.638;2023-07-02T11:37:02;21.60;99.90
17331;DHT22;8783;52.448;4.638;2023-07-02T11:39:28;21.60;99.90
17331;DHT22;8783;52.448;4.638;2023-07-02T11:41:54;21.60;99.90
17331;DHT22;8783;52.448;4.638;2023-07-02T11:44:23;21.60;99.90
17331;DHT22;8783;52.448;4.638;2023-07-02T11:46:49;21.60;99.90
17331;DHT22;8783;52.448;4.638;2023-07-02T11:49:24;21.60;99.90
17331;DHT22;8783;52.448;4.638;2023-07-02T11:51:53;21.60;99.90
17331;DHT22;8783;52.448;4.638;2023-07-02T11:54:18;21.60;99.90
17331;DHT22;8783;52.448;4.638;2023-07-02T11:56:44;21.60;99.90
17331;DHT22;8783;52.448;4.638;2023-07-02T11:59:10;21.60;99.90
17331;DHT22;8783;52.448;4.638;2023-07-02T12:01:39;21.60;99.90
17331;DHT22;8783;52.448;4.638;2023-07-02T12:04:05;21.60;99.90
17331;DHT22;8783;52.448;4.638;2023-07-02T12:06:33;21.60;99.90
17331;DHT22;8783;52.448;4.638;2023-07-02T12:08:59;21.60;99.90
17331;DHT22;8783;52.448;4.638;2023-07-02T12:11:24;21.60;99.90
17331;DHT22;8783;52.448;4.638;2023-07-02T12:13:50;21.60;99.90
17331;DHT22;8783;52.448;4.638;2023-07-02T12:16:16;21.60;99.90
17331;DHT22;8783;52.448;4.638;2023-07-02T12:18:41;21.60;99.70
17331;DHT22;8783;52.448;4.638;2023-07-02T12:21:07;21.60;99.70
17331;DHT22;8783;52.448;4.638;2023-07-02T12:23:32;21.60;99.90
17331;DHT22;8783;52.448;4.638;2023-07-02T12:25:58;21.60;99.90
17331;DHT22;8783;52.448;4.638;2023-07-02T12:28:23;21.60;99.90
17331;DHT22;8783;52.448;4.638;2023-07-02T12:30:49;21.60;99.90
17331;DHT22;8783;52.448;4.638;2023-07-02T12:33:15;21.60;99.90
17331;DHT22;8783;52.448;4.638;2023-07-02T12:35:41;21.60;99.90
17331;DHT22;8783;52.448;4.638;2023-07-02T12:38:06;21.60;99.90
17331;DHT22;8783;52.448;4.638;2023-07-02T12:40:34;21.60;99.90
17331;DHT22;8783;52.448;4.638;2023-07-02T12:42:59;21.70;99.90
17331;DHT22;8783;52.448;4.638;2023-07-02T12:45:25;21.70;99.90
17331;DHT22;8783;52.448;4.638;2023-07-02T12:47:51;21.70;99.90
17331;DHT22;8783;52.448;4.638;2023-07-02T12:50:17;21.70;99.90
17331;DHT22;8783;52.448;4.638;2023-07-02T12:52:42;21.60;99.90
17331;DHT22;8783;52.448;4.638;2023-07-02T12:55:08;21.60;99.90
17331;DHT22;8783;52.448;4.638;2023-07-02T12:57:34;21.60;99.90
17331;DHT22;8783;52.448;4.638;2023-07-02T12:59:59;21.60;99.90
17331;DHT22;8783;52.448;4.638;2023-07-02T13:02:25;21.60;99.90
17331;DHT22;8783;52.448;4.638;2023-07-02T13:04:51;21.60;99.90
17331;DHT22;8783;52.448;4.638;2023-07-02T13:07:17;21.60;99.90
17331;DHT22;8783;52.448;4.638;2023-07-02T13:09:43;21.60;99.90
17331;DHT22;8783;52.448;4.638;2023-07-02T13:12:10;21.60;99.90
17331;DHT22;8783;52.448;4.638;2023-07-02T13:14:36;21.60;99.80
17331;DHT22;8783;52.448;4.638;2023-07-02T13:17:02;21.60;99.50
17331;DHT22;8783;52.448;4.638;2023-07-02T13:19:30;21.60;99.60
17331;DHT22;8783;52.448;4.638;2023-07-02T13:21:56;21.50;99.60
17331;DHT22;8783;52.448;4.638;2023-07-02T13:24:21;21.60;99.80
17331;DHT22;8783;52.448;4.638;2023-07-02T13:26:47;21.60;99.60
17331;DHT22;8783;52.448;4.638;2023-07-02T13:29:13;21.60;99.60
17331;DHT22;8783;52.448;4.638;2023-07-02T13:31:39;21.50;99.40
17331;DHT22;8783;52.448;4.638;2023-07-02T13:34:04;21.60;99.40
17331;DHT22;8783;52.448;4.638;2023-07-02T13:36:30;21.60;99.60
17331;DHT22;8783;52.448;4.638;2023-07-02T13:38:56;21.50;99.50
17331;DHT22;8783;52.448;4.638;2023-07-02T13:41:21;21.60;99.60
17331;DHT22;8783;52.448;4.638;2023-07-02T13:43:47;21.60;99.70
17331;DHT22;8783;52.448;4.638;2023-07-02T13:46:13;21.60;99.60
17331;DHT22;8783;52.448;4.638;2023-07-02T13:48:39;21.60;99.70
17331;DHT22;8783;52.448;4.638;2023-07-02T13:51:05;21.60;99.50
17331;DHT22;8783;52.448;4.638;2023-07-02T13:53:30;21.60;99.50
17331;DHT22;8783;52.448;4.638;2023-07-02T13:55:57;21.60;99.50
17331;DHT22;8783;52.448;4.638;2023-07-02T13:58:23;21.60;99.50
17331;DHT22;8783;52.448;4.638;2023-07-02T14:00:48;21.60;99.60
17331;DHT22;8783;52.448;4.638;2023-07-02T14:03:14;21.60;99.60
17331;DHT22;8783;52.448;4.638;2023-07-02T14:05:40;21.60;99.50
17331;DHT22;8783;52.448;4.638;2023-07-02T14:08:06;21.70;99.50
17331;DHT22;8783;52.448;4.638;2023-07-02T14:10:32;21.70;99.40
17331;DHT22;8783;52.448;4.638;2023-07-02T14:12:57;21.70;99.40
17331;DHT22;8783;52.448;4.638;2023-07-02T14:15:24;21.60;99.10
17331;DHT22;8783;52.448;4.638;2023-07-02T14:17:50;21.60;99.20
17331;DHT22;8783;52.448;4.638;2023-07-02T14:20:16;21.60;99.30
17331;DHT22;8783;52.448;4.638;2023-07-02T14:22:42;21.70;99.50
17331;DHT22;8783;52.448;4.638;2023-07-02T14:25:08;21.70;99.40
17331;DHT22;8783;52.448;4.638;2023-07-02T14:27:33;21.60;99.10
17331;DHT22;8783;52.448;4.638;2023-07-02T14:29:59;21.60;98.80
17331;DHT22;8783;52.448;4.638;2023-07-02T14:32:27;21.60;98.40
17331;DHT22;8783;52.448;4.638;2023-07-02T14:34:53;21.60;98.30
17331;DHT22;8783;52.448;4.638;2023-07-02T14:37:19;21.60;98.30
17331;DHT22;8783;52.448;4.638;2023-07-02T14:39:44;21.60;98.30
17331;DHT22;8783;52.448;4.638;2023-07-02T14:42:10;21.60;98.00
17331;DHT22;8783;52.448;4.638;2023-07-02T14:44:36;21.60;98.00
17331;DHT22;8783;52.448;4.638;2023-07-02T14:47:01;21.60;97.80
17331;DHT22;8783;52.448;4.638;2023-07-02T14:49:27;21.60;97.50
17331;DHT22;8783;52.448;4.638;2023-07-02T14:51:52;21.60;97.50
17331;DHT22;8783;52.448;4.638;2023-07-02T14:54:18;21.70;97.30
17331;DHT22;8783;52.448;4.638;2023-07-02T14:56:44;21.60;97.00
17331;DHT22;8783;52.448;4.638;2023-07-02T14:59:10;21.70;97.10
17331;DHT22;8783;52.448;4.638;2023-07-02T15:01:35;21.60;96.80
17331;DHT22;8783;52.448;4.638;2023-07-02T15:04:01;21.60;96.20
17331;DHT22;8783;52.448;4.638;2023-07-02T15:06:27;21.70;96.20
17331;DHT22;8783;52.448;4.638;2023-07-02T15:08:52;21.70;96.40
17331;DHT22;8783;52.448;4.638;2023-07-02T15:11:18;21.60;96.10
17331;DHT22;8783;52.448;4.638;2023-07-02T15:13:44;21.70;96.40
17331;DHT22;8783;52.448;4.638;2023-07-02T15:16:11;21.70;96.20
17331;DHT22;8783;52.448;4.638;2023-07-02T15:18:37;21.70;96.20
17331;DHT22;8783;52.448;4.638;2023-07-02T15:21:03;21.70;96.50
17331;DHT22;8783;52.448;4.638;2023-07-02T15:23:29;21.70;96.80
17331;DHT22;8783;52.448;4.638;2023-07-02T15:25:57;21.60;97.00
17331;DHT22;8783;52.448;4.638;2023-07-02T15:28:24;21.60;97.00
17331;DHT22;8783;52.448;4.638;2023-07-02T15:31:01;21.70;97.20
17331;DHT22;8783;52.448;4.638;2023-07-02T15:33:27;21.70;97.20
17331;DHT22;8783;52.448;4.638;2023-07-02T15:35:53;21.70;97.10
17331;DHT22;8783;52.448;4.638;2023-07-02T15:38:19;21.70;97.30
17331;DHT22;8783;52.448;4.638;2023-07-02T15:40:47;21.70;97.50